sensor_id;sensor_type;location;lat;lon;timestamp;pressure;altitude;pressure_sealevel;temperature;humidity
47592;BME280;33317;33.356;-117.184;2023-09-12T00:02:14;98918.80;;;30.63;21.85
47592;BME280;33317;33.356;-117.184;2023-09-12T00:04:43;98926.51;;;30.29;22.04
47592;BME280;33317;33.356;-117.184;2023-09-12T00:07:11;98926.31;;;30.13;22.41
47592;BME280;33317;33.356;-117.184;2023-09-12T00:09:39;98925.45;;;30.13;22.54
47592;BME280;33317;33.356;-117.184;2023-09-12T00:12:08;98928.07;;;30.37;22.46
47592;BME280;33317;33.356;-117.184;2023-09-12T00:14:36;98928.35;;;30.67;22.36
47592;BME280;33317;33.356;-117.184;2023-09-12T00:17:05;98927.99;;;30.88;21.99
47592;BME280;33317;33.356;-117.184;2023-09-12T00:19:33;98926.31;;;30.45;22.06
47592;BME280;33317;33.356;-117.184;2023-09-12T00:22:01;98928.10;;;30.92;21.85
47592;BME280;33317;33.356;-117.184;2023-09-12T00:24:30;98930.21;;;30.58;21.78
47592;BME280;33317;33.356;-117.184;2023-09-12T00:26:58;98927.35;;;30.07;21.90
47592;BME280;33317;33.356;-117.184;2023-09-12T00:29:27;98925.59;;;30.50;21.62
47592;BME280;33317;33.356;-117.184;2023-09-12T00:31:55;98922.25;;;30.43;21.62
47592;BME280;33317;33.356;-117.184;2023-09-12T00:34:23;98921.67;;;30.38;21.61
47592;BME280;33317;33.356;-117.184;2023-09-12T00:36:52;98923.36;;;30.21;21.82
47592;BME280;33317;33.356;-117.184;2023-09-12T00:39:20;98929.95;;;29.89;21.81
47592;BME280;33317;33.356;-117.184;2023-09-12T00:41:48;98928.93;;;30.28;21.83
47592;BME280;33317;33.356;-117.184;2023-09-12T00:44:17;98933.43;;;29.94;22.20
47592;BME280;33317;33.356;-117.184;2023-09-12T00:46:46;98932.60;;;29.78;22.91
47592;BME280;33317;33.356;-117.184;2023-09-12T00:49:18;98931.88;;;30.04;22.19
47592;BME280;33317;33.356;-117.184;2023-09-12T00:51:47;98933.33;;;30.30;21.85
47592;BME280;33317;33.356;-117.184;2023-09-12T00:54:17;98933.00;;;30.26;21.75
47592;BME280;33317;33.356;-117.184;2023-09-12T00:56:46;98937.39;;;30.39;21.57
47592;BME280;33317;33.356;-117.184;2023-09-12T00:59:15;98942.14;;;30.11;21.75
47592;BME280;33317;33.356;-117.184;2023-09-12T01:01:45;98938.90;;;30.09;21.76
47592;BME280;33317;33.356;-117.184;2023-09-12T01:04:14;98943.53;;;29.73;22.43
47592;BME280;33317;33.356;-117.184;2023-09-12T01:06:42;98941.44;;;29.65;22.55
47592;BME280;33317;33.356;-117.184;2023-09-12T01:09:11;98947.20;;;29.76;22.56
47592;BME280;33317;33.356;-117.184;2023-09-12T01:11:39;98941.14;;;30.28;22.02
47592;BME280;33317;33.356;-117.184;2023-09-12T01:14:12;98938.91;;;30.21;21.83
47592;BME280;33317;33.356;-117.184;2023-09-12T01:16:40;98935.30;;;30.40;21.52
47592;BME280;33317;33.356;-117.184;2023-09-12T01:19:08;98937.40;;;30.36;21.54
47592;BME280;33317;33.356;-117.184;2023-09-12T01:22:20;98938.94;;;30.17;21.80
47592;BME280;33317;33.356;-117.184;2023-09-12T01:25:08;98943.26;;;29.17;22.72
47592;BME280;33317;33.356;-117.184;2023-09-12T01:27:47;98940.82;;;29.79;22.49
47592;BME280;33317;33.356;-117.184;2023-09-12T01:30:20;98939.68;;;30.07;22.19
47592;BME280;33317;33.356;-117.184;2023-09-12T01:32:49;98937.65;;;30.33;21.73
47592;BME280;33317;33.356;-117.184;2023-09-12T01:35:18;98935.94;;;30.46;21.52
47592;BME280;33317;33.356;-117.184;2023-09-12T01:37:47;98935.37;;;30.08;21.48
47592;BME280;33317;33.356;-117.184;2023-09-12T01:40:15;98937.99;;;30.20;21.49
47592;BME280;33317;33.356;-117.184;2023-09-12T01:42:45;98946.21;;;30.12;21.54
47592;BME280;33317;33.356;-117.184;2023-09-12T01:45:17;98956.47;;;29.57;22.27
47592;BME280;33317;33.356;-117.184;2023-09-12T01:47:46;98959.39;;;29.46;22.43
47592;BME280;33317;33.356;-117.184;2023-09-12T01:50:16;98957.39;;;29.80;22.26
47592;BME280;33317;33.356;-117.184;2023-09-12T01:52:45;98954.71;;;30.20;21.87
47592;BME280;33317;33.356;-117.184;2023-09-12T01:55:15;98959.01;;;30.07;21.80
47592;BME280;33317;33.356;-117.184;2023-09-12T01:57:44;98964.91;;;30.11;21.62
47592;BME280;33317;33.356;-117.184;2023-09-12T02:00:13;98963.58;;;30.31;21.34
47592;BME280;33317;33.356;-117.184;2023-09-12T02:02:42;98960.05;;;30.23;21.69
47592;BME280;33317;33.356;-117.184;2023-09-12T02:05:13;98963.16;;;30.24;21.97
47592;BME280;33317;33.356;-117.184;2023-09-12T02:07:43;98963.76;;;29.98;22.27
47592;BME280;33317;33.356;-117.184;2023-09-12T02:10:11;98958.85;;;30.16;22.27
47592;BME280;33317;33.356;-117.184;2023-09-12T02:12:40;98957.53;;;30.07;21.92
47592;BME280;33317;33.356;-117.184;2023-09-12T02:15:09;98953.30;;;30.35;21.73
47592;BME280;33317;33.356;-117.184;2023-09-12T02:17:38;98951.12;;;29.92;22.28
47592;BME280;33317;33.356;-117.184;2023-09-12T02:20:09;98946.68;;;30.22;22.13
47592;BME280;33317;33.356;-117.184;2023-09-12T02:22:38;98942.75;;;30.35;22.11
47592;BME280;33317;33.356;-117.184;2023-09-12T02:25:07;98946.55;;;30.03;22.37
47592;BME280;33317;33.356;-117.184;2023-09-12T02:27:36;98949.31;;;30.59;21.95
47592;BME280;33317;33.356;-117.184;2023-09-12T02:30:05;98948.45;;;30.44;22.25
47592;BME280;33317;33.356;-117.184;2023-09-12T02:32:36;98952.20;;;30.32;22.49
47592;BME280;33317;33.356;-117.184;2023-09-12T02:35:04;98962.94;;;29.55;22.98
47592;BME280;33317;33.356;-117.184;2023-09-12T02:37:37;98959.48;;;29.83;22.69
47592;BME280;33317;33.356;-117.184;2023-09-12T02:40:09;98960.01;;;29.97;22.72
47592;BME280;33317;33.356;-117.184;2023-09-12T02:42:38;98958.81;;;30.52;22.39
47592;BME280;33317;33.356;-117.184;2023-09-12T02:45:07;98960.08;;;30.39;22.11
47592;BME280;33317;33.356;-117.184;2023-09-12T02:47:36;98958.91;;;30.34;22.24
47592;BME280;33317;33.356;-117.184;2023-09-12T02:50:05;98963.90;;;30.15;22.53
47592;BME280;33317;33.356;-117.184;2023-09-12T02:52:35;98964.48;;;30.40;22.70
47592;BME280;33317;33.356;-117.184;2023-09-12T02:55:07;98958.28;;;30.31;22.71
47592;BME280;33317;33.356;-117.184;2023-09-12T02:57:37;98952.91;;;30.25;22.39
47592;BME280;33317;33.356;-117.184;2023-09-12T03:00:07;98954.08;;;30.20;22.01
47592;BME280;33317;33.356;-117.184;2023-09-12T03:02:37;98946.89;;;30.33;21.65
47592;BME280;33317;33.356;-117.184;2023-09-12T03:05:08;98943.90;;;29.86;22.34
47592;BME280;33317;33.356;-117.184;2023-09-12T03:07:37;98940.20;;;30.18;22.30
47592;BME280;33317;33.356;-117.184;2023-09-12T03:10:09;98951.11;;;30.25;22.47
47592;BME280;33317;33.356;-117.184;2023-09-12T03:12:37;98957.52;;;30.26;22.07
47592;BME280;33317;33.356;-117.184;2023-09-12T03:15:08;98969.38;;;30.29;21.99
47592;BME280;33317;33.356;-117.184;2023-09-12T03:17:37;98978.99;;;30.21;22.17
47592;BME280;33317;33.356;-117.184;2023-09-12T03:20:07;98986.36;;;29.99;22.43
47592;BME280;33317;33.356;-117.184;2023-09-12T03:22:37;98988.07;;;30.18;22.48
47592;BME280;33317;33.356;-117.184;2023-09-12T03:25:07;98992.96;;;29.51;23.10
47592;BME280;33317;33.356;-117.184;2023-09-12T03:27:35;98995.20;;;30.03;22.51
47592;BME280;33317;33.356;-117.184;2023-09-12T03:30:06;98990.33;;;29.93;22.19
47592;BME280;33317;33.356;-117.184;2023-09-12T03:32:40;98989.45;;;30.01;22.10
47592;BME280;33317;33.356;-117.184;2023-09-12T03:35:09;98986.51;;;30.43;22.31
47592;BME280;33317;33.356;-117.184;2023-09-12T03:37:39;98989.71;;;30.14;22.40
47592;BME280;33317;33.356;-117.184;2023-09-12T03:40:09;98994.43;;;30.20;22.50
47592;BME280;33317;33.356;-117.184;2023-09-12T03:42:39;98992.64;;;30.21;22.55
47592;BME280;33317;33.356;-117.184;2023-09-12T03:45:09;98994.43;;;30.30;22.16
47592;BME280;33317;33.356;-117.184;2023-09-12T03:47:38;98997.56;;;29.88;22.19
47592;BME280;33317;33.356;-117.184;2023-09-12T03:50:08;98995.55;;;30.21;21.77
47592;BME280;33317;33.356;-117.184;2023-09-12T03:52:37;98996.25;;;29.32;22.65
47592;BME280;33317;33.356;-117.184;2023-09-12T03:55:07;99001.53;;;29.80;22.58
47592;BME280;33317;33.356;-117.184;2023-09-12T03:57:37;99007.60;;;29.98;22.34
47592;BME280;33317;33.356;-117.184;2023-09-12T04:00:07;99003.49;;;30.17;22.29
47592;BME280;33317;33.356;-117.184;2023-09-12T04:02:39;99003.03;;;30.39;22.10
47592;BME280;33317;33.356;-117.184;2023-09-12T04:05:08;99008.16;;;30.16;21.84
47592;BME280;33317;33.356;-117.184;2023-09-12T04:07:38;99018.06;;;30.02;21.74
47592;BME280;33317;33.356;-117.184;2023-09-12T04:10:08;99025.48;;;29.98;21.98
47592;BME280;33317;33.356;-117.184;2023-09-12T04:12:37;99030.99;;;30.00;22.24
47592;BME280;33317;33.356;-117.184;2023-09-12T04:15:06;99035.38;;;30.10;22.31
47592;BME280;33317;33.356;-117.184;2023-09-12T04:17:35;99039.60;;;30.11;22.33
47592;BME280;33317;33.356;-117.184;2023-09-12T04:20:04;99042.95;;;30.16;21.81
47592;BME280;33317;33.356;-117.184;2023-09-12T04:22:33;99050.56;;;30.23;21.91
47592;BME280;33317;33.356;-117.184;2023-09-12T04:25:01;99049.87;;;29.61;22.41
47592;BME280;33317;33.356;-117.184;2023-09-12T04:27:29;99055.64;;;30.00;22.44
47592;BME280;33317;33.356;-117.184;2023-09-12T04:29:58;99062.11;;;29.96;22.45
47592;BME280;33317;33.356;-117.184;2023-09-12T04:32:26;99070.86;;;30.09;22.39
47592;BME280;33317;33.356;-117.184;2023-09-12T04:34:55;99078.61;;;30.18;22.40
47592;BME280;33317;33.356;-117.184;2023-09-12T04:37:24;99091.26;;;30.58;22.46
47592;BME280;33317;33.356;-117.184;2023-09-12T04:39:52;99102.09;;;30.37;22.00
47592;BME280;33317;33.356;-117.184;2023-09-12T04:42:21;99099.43;;;30.40;21.92
47592;BME280;33317;33.356;-117.184;2023-09-12T04:44:50;99113.53;;;30.21;22.61
47592;BME280;33317;33.356;-117.184;2023-09-12T04:47:18;99107.88;;;30.31;22.52
47592;BME280;33317;33.356;-117.184;2023-09-12T04:49:47;99095.67;;;30.57;22.53
47592;BME280;33317;33.356;-117.184;2023-09-12T04:52:16;99105.50;;;30.56;22.52
47592;BME280;33317;33.356;-117.184;2023-09-12T04:54:44;99114.05;;;30.78;22.50
47592;BME280;33317;33.356;-117.184;2023-09-12T04:57:13;99116.24;;;30.27;22.26
47592;BME280;33317;33.356;-117.184;2023-09-12T04:59:41;99117.48;;;30.36;22.13
47592;BME280;33317;33.356;-117.184;2023-09-12T05:02:10;99124.96;;;30.04;22.57
47592;BME280;33317;33.356;-117.184;2023-09-12T05:04:39;99112.78;;;30.15;22.47
47592;BME280;33317;33.356;-117.184;2023-09-12T05:07:07;99119.89;;;30.43;22.49
47592;BME280;33317;33.356;-117.184;2023-09-12T05:09:35;99120.59;;;30.36;22.48
47592;BME280;33317;33.356;-117.184;2023-09-12T05:12:04;99127.59;;;30.34;22.51
47592;BME280;33317;33.356;-117.184;2023-09-12T05:14:33;99125.29;;;30.22;22.46
47592;BME280;33317;33.356;-117.184;2023-09-12T05:17:02;99118.76;;;30.25;22.53
47592;BME280;33317;33.356;-117.184;2023-09-12T05:19:31;99107.88;;;30.70;22.57
47592;BME280;33317;33.356;-117.184;2023-09-12T05:21:58;99096.43;;;30.76;22.47
47592;BME280;33317;33.356;-117.184;2023-09-12T05:24:27;99090.90;;;30.47;22.57
47592;BME280;33317;33.356;-117.184;2023-09-12T05:26:55;99095.64;;;30.57;22.61
47592;BME280;33317;33.356;-117.184;2023-09-12T05:29:24;99106.86;;;30.57;22.68
47592;BME280;33317;33.356;-117.184;2023-09-12T05:31:53;99111.48;;;30.70;22.66
47592;BME280;33317;33.356;-117.184;2023-09-12T05:34:21;99101.58;;;30.91;22.68
47592;BME280;33317;33.356;-117.184;2023-09-12T05:36:50;99105.64;;;30.75;22.69
47592;BME280;33317;33.356;-117.184;2023-09-12T05:39:20;99114.13;;;30.76;22.72
47592;BME280;33317;33.356;-117.184;2023-09-12T05:41:49;99113.68;;;30.82;22.70
47592;BME280;33317;33.356;-117.184;2023-09-12T05:44:17;99125.26;;;31.10;22.70
47592;BME280;33317;33.356;-117.184;2023-09-12T05:46:47;99136.90;;;30.62;22.72
47592;BME280;33317;33.356;-117.184;2023-09-12T05:49:15;99136.76;;;30.80;22.78
47592;BME280;33317;33.356;-117.184;2023-09-12T05:51:43;99115.24;;;30.55;22.85
47592;BME280;33317;33.356;-117.184;2023-09-12T05:54:12;99094.42;;;30.80;22.88
47592;BME280;33317;33.356;-117.184;2023-09-12T05:56:40;99076.63;;;30.81;22.93
47592;BME280;33317;33.356;-117.184;2023-09-12T05:59:09;99084.07;;;30.99;23.18
47592;BME280;33317;33.356;-117.184;2023-09-12T06:01:38;99092.66;;;30.84;22.93
47592;BME280;33317;33.356;-117.184;2023-09-12T06:04:06;99113.40;;;30.77;23.08
47592;BME280;33317;33.356;-117.184;2023-09-12T06:06:34;99108.05;;;31.03;22.98
47592;BME280;33317;33.356;-117.184;2023-09-12T06:09:03;99090.24;;;30.81;23.03
47592;BME280;33317;33.356;-117.184;2023-09-12T06:11:31;99075.05;;;31.06;23.05
47592;BME280;33317;33.356;-117.184;2023-09-12T06:13:59;99065.63;;;31.03;23.10
47592;BME280;33317;33.356;-117.184;2023-09-12T06:16:28;99069.93;;;31.07;23.14
47592;BME280;33317;33.356;-117.184;2023-09-12T06:18:56;99078.27;;;31.32;23.18
47592;BME280;33317;33.356;-117.184;2023-09-12T06:21:25;99050.57;;;31.04;23.22
47592;BME280;33317;33.356;-117.184;2023-09-12T06:24:10;99020.49;;;30.82;23.23
47592;BME280;33317;33.356;-117.184;2023-09-12T06:26:39;98993.48;;;31.06;23.23
47592;BME280;33317;33.356;-117.184;2023-09-12T06:29:08;98989.08;;;31.00;23.34
47592;BME280;33317;33.356;-117.184;2023-09-12T06:31:36;99024.47;;;31.03;23.35
47592;BME280;33317;33.356;-117.184;2023-09-12T06:34:05;99018.74;;;31.03;23.35
47592;BME280;33317;33.356;-117.184;2023-09-12T06:36:33;99004.53;;;31.24;23.39
47592;BME280;33317;33.356;-117.184;2023-09-12T06:39:02;99007.22;;;30.97;23.47
47592;BME280;33317;33.356;-117.184;2023-09-12T06:41:31;99036.04;;;30.78;23.46
47592;BME280;33317;33.356;-117.184;2023-09-12T06:43:59;99044.56;;;31.03;23.50
47592;BME280;33317;33.356;-117.184;2023-09-12T06:46:28;99017.36;;;31.06;23.52
47592;BME280;33317;33.356;-117.184;2023-09-12T06:48:56;98985.16;;;30.99;23.63
47592;BME280;33317;33.356;-117.184;2023-09-12T06:51:25;98986.96;;;31.24;23.64
47592;BME280;33317;33.356;-117.184;2023-09-12T06:53:53;99003.13;;;31.05;23.63
47592;BME280;33317;33.356;-117.184;2023-09-12T06:56:21;99008.19;;;31.02;23.70
47592;BME280;33317;33.356;-117.184;2023-09-12T06:58:49;99002.27;;;31.37;23.58
47592;BME280;33317;33.356;-117.184;2023-09-12T07:01:18;99005.42;;;31.03;23.56
47592;BME280;33317;33.356;-117.184;2023-09-12T07:03:46;99000.69;;;31.45;23.68
47592;BME280;33317;33.356;-117.184;2023-09-12T07:06:14;99004.65;;;30.98;23.66
47592;BME280;33317;33.356;-117.184;2023-09-12T07:08:43;99005.72;;;30.95;23.67
47592;BME280;33317;33.356;-117.184;2023-09-12T07:11:11;98990.06;;;31.11;23.75
47592;BME280;33317;33.356;-117.184;2023-09-12T07:13:40;98971.79;;;31.38;23.71
47592;BME280;33317;33.356;-117.184;2023-09-12T07:16:08;98958.48;;;31.10;23.74
47592;BME280;33317;33.356;-117.184;2023-09-12T07:18:38;98959.87;;;30.89;23.72
47592;BME280;33317;33.356;-117.184;2023-09-12T07:21:06;98962.42;;;30.80;23.88
47592;BME280;33317;33.356;-117.184;2023-09-12T07:23:35;98950.13;;;30.78;23.87
47592;BME280;33317;33.356;-117.184;2023-09-12T07:26:03;98939.73;;;30.98;23.90
47592;BME280;33317;33.356;-117.184;2023-09-12T07:28:32;98954.72;;;31.24;23.94
47592;BME280;33317;33.356;-117.184;2023-09-12T07:31:00;98961.83;;;31.02;23.96
47592;BME280;33317;33.356;-117.184;2023-09-12T07:33:28;98963.34;;;31.06;23.87
47592;BME280;33317;33.356;-117.184;2023-09-12T07:35:57;98975.97;;;31.07;23.89
47592;BME280;33317;33.356;-117.184;2023-09-12T07:38:25;98987.97;;;31.10;23.90
47592;BME280;33317;33.356;-117.184;2023-09-12T07:40:54;98987.66;;;31.07;23.93
47592;BME280;33317;33.356;-117.184;2023-09-12T07:43:22;98985.71;;;31.08;23.89
47592;BME280;33317;33.356;-117.184;2023-09-12T07:45:55;98985.19;;;30.87;23.88
47592;BME280;33317;33.356;-117.184;2023-09-12T07:48:23;98981.76;;;30.87;23.93
47592;BME280;33317;33.356;-117.184;2023-09-12T07:50:51;98976.65;;;30.83;23.99
47592;BME280;33317;33.356;-117.184;2023-09-12T07:53:20;98970.41;;;31.39;23.95
47592;BME280;33317;33.356;-117.184;2023-09-12T07:55:48;98952.32;;;30.87;23.97
47592;BME280;33317;33.356;-117.184;2023-09-12T07:58:18;98949.50;;;30.86;23.97
47592;BME280;33317;33.356;-117.184;2023-09-12T08:00:46;98960.67;;;31.11;24.06
47592;BME280;33317;33.356;-117.184;2023-09-12T08:03:14;98960.04;;;30.85;24.08
47592;BME280;33317;33.356;-117.184;2023-09-12T08:05:43;98951.34;;;30.87;24.03
47592;BME280;33317;33.356;-117.184;2023-09-12T08:08:11;98946.27;;;31.10;24.04
47592;BME280;33317;33.356;-117.184;2023-09-12T08:10:39;98942.40;;;31.11;24.11
47592;BME280;33317;33.356;-117.184;2023-09-12T08:13:08;98939.40;;;30.90;24.09
47592;BME280;33317;33.356;-117.184;2023-09-12T08:15:36;98940.94;;;31.38;24.06
47592;BME280;33317;33.356;-117.184;2023-09-12T08:18:05;98947.54;;;31.13;24.07
47592;BME280;33317;33.356;-117.184;2023-09-12T08:20:33;98952.81;;;31.12;24.08
47592;BME280;33317;33.356;-117.184;2023-09-12T08:23:01;98956.14;;;30.89;24.19
47592;BME280;33317;33.356;-117.184;2023-09-12T08:25:30;98944.57;;;31.16;24.12
47592;BME280;33317;33.356;-117.184;2023-09-12T08:27:58;98932.43;;;30.89;24.04
47592;BME280;33317;33.356;-117.184;2023-09-12T08:30:27;98921.69;;;31.41;23.92
47592;BME280;33317;33.356;-117.184;2023-09-12T08:32:55;98921.54;;;31.20;23.94
47592;BME280;33317;33.356;-117.184;2023-09-12T08:35:23;98921.90;;;31.47;24.01
47592;BME280;33317;33.356;-117.184;2023-09-12T08:37:52;98920.36;;;30.96;24.02
47592;BME280;33317;33.356;-117.184;2023-09-12T08:40:20;98912.45;;;31.45;24.05
47592;BME280;33317;33.356;-117.184;2023-09-12T08:42:49;98915.58;;;31.16;24.09
47592;BME280;33317;33.356;-117.184;2023-09-12T08:45:20;98921.34;;;30.94;24.15
47592;BME280;33317;33.356;-117.184;2023-09-12T08:47:51;98927.89;;;31.17;24.09
47592;BME280;33317;33.356;-117.184;2023-09-12T08:50:21;98928.51;;;31.24;23.95
47592;BME280;33317;33.356;-117.184;2023-09-12T08:52:49;98929.67;;;31.26;24.01
47592;BME280;33317;33.356;-117.184;2023-09-12T08:55:17;98928.95;;;31.22;24.08
47592;BME280;33317;33.356;-117.184;2023-09-12T08:57:50;98930.44;;;30.97;24.05
47592;BME280;33317;33.356;-117.184;2023-09-12T09:00:18;98929.32;;;30.99;24.14
47592;BME280;33317;33.356;-117.184;2023-09-12T09:02:46;98929.09;;;30.98;24.14
47592;BME280;33317;33.356;-117.184;2023-09-12T09:05:16;98938.06;;;31.03;24.18
47592;BME280;33317;33.356;-117.184;2023-09-12T09:07:45;98946.14;;;31.17;24.23
47592;BME280;33317;33.356;-117.184;2023-09-12T09:10:16;98953.61;;;31.00;24.12
47592;BME280;33317;33.356;-117.184;2023-09-12T09:12:46;98950.56;;;31.24;24.21
47592;BME280;33317;33.356;-117.184;2023-09-12T09:15:22;98943.28;;;31.56;24.03
47592;BME280;33317;33.356;-117.184;2023-09-12T09:17:51;98945.32;;;31.29;24.13
47592;BME280;33317;33.356;-117.184;2023-09-12T09:20:25;98943.83;;;31.07;24.06
47592;BME280;33317;33.356;-117.184;2023-09-12T09:22:59;98937.55;;;31.30;24.15
47592;BME280;33317;33.356;-117.184;2023-09-12T09:25:27;98940.96;;;31.34;24.04
47592;BME280;33317;33.356;-117.184;2023-09-12T09:27:56;98949.36;;;31.11;24.07
47592;BME280;33317;33.356;-117.184;2023-09-12T09:30:41;98942.80;;;31.58;24.15
47592;BME280;33317;33.356;-117.184;2023-09-12T09:33:11;98932.03;;;31.34;24.14
47592;BME280;33317;33.356;-117.184;2023-09-12T09:35:41;98933.38;;;31.61;24.07
47592;BME280;33317;33.356;-117.184;2023-09-12T09:38:11;98939.76;;;31.14;24.07
47592;BME280;33317;33.356;-117.184;2023-09-12T09:40:39;98939.46;;;31.11;24.22
47592;BME280;33317;33.356;-117.184;2023-09-12T09:43:08;98930.67;;;31.08;24.25
47592;BME280;33317;33.356;-117.184;2023-09-12T09:45:45;98922.79;;;31.31;24.20
47592;BME280;33317;33.356;-117.184;2023-09-12T09:48:19;98923.73;;;31.58;24.19
47592;BME280;33317;33.356;-117.184;2023-09-12T09:50:48;98933.62;;;31.09;24.24
47592;BME280;33317;33.356;-117.184;2023-09-12T09:53:16;98937.57;;;31.07;24.23
47592;BME280;33317;33.356;-117.184;2023-09-12T09:55:44;98932.78;;;31.27;24.17
47592;BME280;33317;33.356;-117.184;2023-09-12T09:58:15;98932.00;;;31.53;24.32
47592;BME280;33317;33.356;-117.184;2023-09-12T10:00:43;98937.05;;;31.26;24.46
47592;BME280;33317;33.356;-117.184;2023-09-12T10:03:13;98940.57;;;31.25;24.43
47592;BME280;33317;33.356;-117.184;2023-09-12T10:05:46;98942.33;;;31.00;24.42
47592;BME280;33317;33.356;-117.184;2023-09-12T10:08:17;98936.69;;;31.21;24.39
47592;BME280;33317;33.356;-117.184;2023-09-12T10:10:46;98935.51;;;31.19;24.52
47592;BME280;33317;33.356;-117.184;2023-09-12T10:13:17;98930.57;;;31.20;24.38
47592;BME280;33317;33.356;-117.184;2023-09-12T10:15:47;98928.43;;;31.42;24.30
47592;BME280;33317;33.356;-117.184;2023-09-12T10:18:21;98930.27;;;31.17;24.30
47592;BME280;33317;33.356;-117.184;2023-09-12T10:20:54;98930.13;;;30.92;24.45
47592;BME280;33317;33.356;-117.184;2023-09-12T10:23:27;98930.14;;;30.92;24.41
47592;BME280;33317;33.356;-117.184;2023-09-12T10:25:59;98925.79;;;30.90;24.42
47592;BME280;33317;33.356;-117.184;2023-09-12T10:28:27;98927.35;;;31.08;24.58
47592;BME280;33317;33.356;-117.184;2023-09-12T10:30:59;98933.63;;;31.34;24.72
47592;BME280;33317;33.356;-117.184;2023-09-12T10:33:28;98940.74;;;31.06;24.76
47592;BME280;33317;33.356;-117.184;2023-09-12T10:35:57;98946.96;;;31.29;25.01
47592;BME280;33317;33.356;-117.184;2023-09-12T10:38:29;98950.72;;;31.28;24.87
47592;BME280;33317;33.356;-117.184;2023-09-12T10:40:58;98948.94;;;31.28;24.94
47592;BME280;33317;33.356;-117.184;2023-09-12T10:43:29;98950.51;;;31.01;24.90
47592;BME280;33317;33.356;-117.184;2023-09-12T10:45:58;98952.57;;;30.99;24.78
47592;BME280;33317;33.356;-117.184;2023-09-12T10:48:28;98956.69;;;31.24;24.83
47592;BME280;33317;33.356;-117.184;2023-09-12T10:50:58;98951.43;;;31.23;24.89
47592;BME280;33317;33.356;-117.184;2023-09-12T10:53:27;98945.81;;;31.18;24.86
47592;BME280;33317;33.356;-117.184;2023-09-12T10:56:17;98944.69;;;31.17;24.88
47592;BME280;33317;33.356;-117.184;2023-09-12T10:59:10;98944.43;;;31.16;24.83
47592;BME280;33317;33.356;-117.184;2023-09-12T11:01:39;98945.78;;;31.13;25.06
47592;BME280;33317;33.356;-117.184;2023-09-12T11:04:32;98946.71;;;31.10;24.78
47592;BME280;33317;33.356;-117.184;2023-09-12T11:07:01;98941.61;;;31.07;24.92
47592;BME280;33317;33.356;-117.184;2023-09-12T11:09:29;98943.78;;;31.26;24.77
47592;BME280;33317;33.356;-117.184;2023-09-12T11:11:59;98944.29;;;30.72;24.96
47592;BME280;33317;33.356;-117.184;2023-09-12T11:14:30;98946.56;;;30.99;24.82
47592;BME280;33317;33.356;-117.184;2023-09-12T11:17:24;98949.77;;;30.94;24.90
47592;BME280;33317;33.356;-117.184;2023-09-12T11:19:53;98951.33;;;30.89;25.36
47592;BME280;33317;33.356;-117.184;2023-09-12T11:22:23;98952.40;;;30.86;25.25
47592;BME280;33317;33.356;-117.184;2023-09-12T11:24:52;98957.19;;;30.77;25.24
47592;BME280;33317;33.356;-117.184;2023-09-12T11:27:20;98963.73;;;30.77;25.19
47592;BME280;33317;33.356;-117.184;2023-09-12T11:29:49;98964.01;;;30.79;25.33
47592;BME280;33317;33.356;-117.184;2023-09-12T11:32:35;98963.68;;;30.77;25.29
47592;BME280;33317;33.356;-117.184;2023-09-12T11:35:06;98956.04;;;30.77;25.53
47592;BME280;33317;33.356;-117.184;2023-09-12T11:37:35;98956.18;;;30.97;25.36
47592;BME280;33317;33.356;-117.184;2023-09-12T11:40:17;98953.38;;;30.94;25.50
47592;BME280;33317;33.356;-117.184;2023-09-12T11:42:45;98957.18;;;30.70;25.43
47592;BME280;33317;33.356;-117.184;2023-09-12T11:45:14;98949.91;;;30.69;25.45
47592;BME280;33317;33.356;-117.184;2023-09-12T11:47:43;98948.92;;;30.62;25.50
47592;BME280;33317;33.356;-117.184;2023-09-12T11:50:27;98942.89;;;30.58;25.63
47592;BME280;33317;33.356;-117.184;2023-09-12T11:53:00;98937.78;;;30.49;25.47
47592;BME280;33317;33.356;-117.184;2023-09-12T11:55:31;98939.93;;;30.47;25.84
47592;BME280;33317;33.356;-117.184;2023-09-12T11:57:59;98942.69;;;30.49;25.52
47592;BME280;33317;33.356;-117.184;2023-09-12T12:00:28;98946.13;;;30.69;25.65
47592;BME280;33317;33.356;-117.184;2023-09-12T12:02:58;98948.58;;;30.60;25.77
47592;BME280;33317;33.356;-117.184;2023-09-12T12:05:26;98948.35;;;30.60;25.83
47592;BME280;33317;33.356;-117.184;2023-09-12T12:07:55;98952.11;;;30.59;25.77
47592;BME280;33317;33.356;-117.184;2023-09-12T12:10:24;98957.45;;;30.79;25.83
47592;BME280;33317;33.356;-117.184;2023-09-12T12:12:54;98954.41;;;30.31;25.91
47592;BME280;33317;33.356;-117.184;2023-09-12T12:15:22;98949.20;;;30.55;25.97
47592;BME280;33317;33.356;-117.184;2023-09-12T12:17:54;98948.96;;;30.33;25.79
47592;BME280;33317;33.356;-117.184;2023-09-12T12:20:23;98952.44;;;30.56;25.97
47592;BME280;33317;33.356;-117.184;2023-09-12T12:22:51;98947.24;;;30.35;26.07
47592;BME280;33317;33.356;-117.184;2023-09-12T12:25:19;98942.80;;;30.36;25.97
47592;BME280;33317;33.356;-117.184;2023-09-12T12:27:48;98939.95;;;30.57;25.91
47592;BME280;33317;33.356;-117.184;2023-09-12T12:30:16;98939.67;;;30.58;26.01
47592;BME280;33317;33.356;-117.184;2023-09-12T12:32:46;98939.41;;;30.35;25.96
47592;BME280;33317;33.356;-117.184;2023-09-12T12:35:18;98942.88;;;30.57;25.97
47592;BME280;33317;33.356;-117.184;2023-09-12T12:37:49;98943.74;;;30.57;26.23
47592;BME280;33317;33.356;-117.184;2023-09-12T12:40:17;98947.12;;;30.33;26.01
47592;BME280;33317;33.356;-117.184;2023-09-12T12:42:46;98946.08;;;30.34;26.06
47592;BME280;33317;33.356;-117.184;2023-09-12T12:45:16;98944.05;;;30.53;26.11